sensor_id;sensor_type;location;lat;lon;timestamp;P1;durP1;ratioP1;P2;durP2;ratioP2
39930;SDS011;26635;-35.248;149.138;2023-07-09T00:00:56;2.15;;;1.00;;
39930;SDS011;26635;-35.248;149.138;2023-07-09T00:03:27;2.80;;;0.40;;
39930;SDS011;26635;-35.248;149.138;2023-07-09T00:05:57;2.03;;;0.20;;
39930;SDS011;26635;-35.248;149.138;2023-07-09T00:08:28;2.40;;;0.52;;
39930;SDS011;26635;-35.248;149.138;2023-07-09T00:11:02;3.05;;;1.02;;
39930;SDS011;26635;-35.248;149.138;2023-07-09T00:13:33;2.10;;;0.70;;
39930;SDS011;26635;-35.248;149.138;2023-07-09T00:16:10;2.95;;;0.60;;
39930;SDS011;26635;-35.248;149.138;2023-07-09T00:18:44;2.58;;;0.60;;
39930;SDS011;26635;-35.248;149.138;2023-07-09T00:21:17;2.22;;;1.17;;
39930;SDS011;26635;-35.248;149.138;2023-07-09T00:23:51;2.42;;;0.70;;
39930;SDS011;26635;-35.248;149.138;2023-07-09T00:26:21;1.42;;;0.73;;
39930;SDS011;26635;-35.248;149.138;2023-07-09T00:28:52;2.83;;;0.50;;
39930;SDS011;26635;-35.248;149.138;2023-07-09T00:31:23;2.47;;;0.68;;
39930;SDS011;26635;-35.248;149.138;2023-07-09T00:33:54;2.28;;;0.30;;
39930;SDS011;26635;-35.248;149.138;2023-07-09T00:36:29;1.33;;;1.02;;
39930;SDS011;26635;-35.248;149.138;2023-07-09T00:39:00;3.72;;;0.50;;
39930;SDS011;26635;-35.248;149.138;2023-07-09T00:41:36;1.50;;;0.27;;
39930;SDS011;26635;-35.248;149.138;2023-07-09T00:49:30;3.05;;;0.65;;
39930;SDS011;26635;-35.248;149.138;2023-07-09T00:52:12;0.60;;;0.20;;
39930;SDS011;26635;-35.248;149.138;2023-07-09T00:55:15;2.40;;;0.30;;
39930;SDS011;26635;-35.248;149.138;2023-07-09T00:57:49;3.40;;;0.43;;
39930;SDS011;26635;-35.248;149.138;2023-07-09T01:00:29;1.37;;;0.23;;
39930;SDS011;26635;-35.248;149.138;2023-07-09T01:06:03;1.85;;;0.50;;
39930;SDS011;26635;-35.248;149.138;2023-07-09T01:08:36;1.35;;;0.30;;
39930;SDS011;26635;-35.248;149.138;2023-07-09T01:11:16;1.67;;;0.65;;
39930;SDS011;26635;-35.248;149.138;2023-07-09T01:13:51;1.25;;;0.20;;
39930;SDS011;26635;-35.248;149.138;2023-07-09T01:16:43;0.60;;;0.10;;
39930;SDS011;26635;-35.248;149.138;2023-07-09T01:19:36;1.48;;;0.30;;
39930;SDS011;26635;-35.248;149.138;2023-07-09T01:22:16;2.38;;;0.55;;
39930;SDS011;26635;-35.248;149.138;2023-07-09T01:24:52;0.98;;;0.13;;
39930;SDS011;26635;-35.248;149.138;2023-07-09T01:27:33;1.05;;;0.25;;
39930;SDS011;26635;-35.248;149.138;2023-07-09T01:30:11;4.07;;;0.30;;
39930;SDS011;26635;-35.248;149.138;2023-07-09T01:32:57;3.13;;;0.10;;
39930;SDS011;26635;-35.248;149.138;2023-07-09T01:35:32;2.58;;;0.35;;
39930;SDS011;26635;-35.248;149.138;2023-07-09T01:38:08;0.85;;;0.32;;
39930;SDS011;26635;-35.248;149.138;2023-07-09T01:40:43;1.50;;;0.20;;
39930;SDS011;26635;-35.248;149.138;2023-07-09T01:43:15;1.38;;;0.60;;
39930;SDS011;26635;-35.248;149.138;2023-07-09T01:45:45;0.80;;;0.20;;
39930;SDS011;26635;-35.248;149.138;2023-07-09T01:48:19;1.23;;;0.28;;
39930;SDS011;26635;-35.248;149.138;2023-07-09T01:50:49;1.17;;;1.00;;
39930;SDS011;26635;-35.248;149.138;2023-07-09T01:53:22;3.40;;;0.20;;
39930;SDS011;26635;-35.248;149.138;2023-07-09T01:55:54;1.25;;;0.10;;
39930;SDS011;26635;-35.248;149.138;2023-07-09T01:58:28;0.20;;;0.10;;
39930;SDS011;26635;-35.248;149.138;2023-07-09T02:01:01;2.30;;;0.15;;
39930;SDS011;26635;-35.248;149.138;2023-07-09T02:03:32;0.82;;;0.20;;
39930;SDS011;26635;-35.248;149.138;2023-07-09T02:06:05;2.85;;;0.30;;
39930;SDS011;26635;-35.248;149.138;2023-07-09T02:09:47;0.73;;;0.20;;
39930;SDS011;26635;-35.248;149.138;2023-07-09T02:12:39;0.32;;;0.10;;
39930;SDS011;26635;-35.248;149.138;2023-07-09T02:15:10;0.47;;;0.30;;
39930;SDS011;26635;-35.248;149.138;2023-07-09T02:17:41;1.55;;;0.30;;
39930;SDS011;26635;-35.248;149.138;2023-07-09T02:20:11;0.77;;;0.10;;
39930;SDS011;26635;-35.248;149.138;2023-07-09T02:22:43;0.52;;;0.10;;
39930;SDS011;26635;-35.248;149.138;2023-07-09T02:25:14;0.55;;;0.20;;
39930;SDS011;26635;-35.248;149.138;2023-07-09T02:27:45;0.45;;;0.20;;
39930;SDS011;26635;-35.248;149.138;2023-07-09T02:30:15;0.38;;;0.10;;
39930;SDS011;26635;-35.248;149.138;2023-07-09T02:32:45;0.60;;;0.05;;
39930;SDS011;26635;-35.248;149.138;2023-07-09T02:35:16;0.17;;;0.03;;
39930;SDS011;26635;-35.248;149.138;2023-07-09T02:37:46;0.77;;;0.17;;
39930;SDS011;26635;-35.248;149.138;2023-07-09T02:40:17;0.77;;;0.20;;
39930;SDS011;26635;-35.248;149.138;2023-07-09T02:42:48;0.38;;;0.10;;
39930;SDS011;26635;-35.248;149.138;2023-07-09T02:45:18;0.38;;;0.10;;
39930;SDS011;26635;-35.248;149.138;2023-07-09T02:47:49;0.32;;;0.17;;
39930;SDS011;26635;-35.248;149.138;2023-07-09T02:50:20;0.70;;;0.20;;
39930;SDS011;26635;-35.248;149.138;2023-07-09T02:52:50;0.20;;;0.00;;
39930;SDS011;26635;-35.248;149.138;2023-07-09T02:55:21;1.75;;;0.30;;
39930;SDS011;26635;-35.248;149.138;2023-07-09T02:57:51;0.85;;;0.13;;
39930;SDS011;26635;-35.248;149.138;2023-07-09T03:00:22;0.88;;;0.10;;
39930;SDS011;26635;-35.248;149.138;2023-07-09T03:02:53;0.85;;;0.10;;
39930;SDS011;26635;-35.248;149.138;2023-07-09T03:05:25;0.00;;;0.00;;
39930;SDS011;26635;-35.248;149.138;2023-07-09T03:07:56;1.10;;;0.10;;
39930;SDS011;26635;-35.248;149.138;2023-07-09T03:10:27;0.10;;;0.00;;
39930;SDS011;26635;-35.248;149.138;2023-07-09T03:13:16;0.32;;;0.10;;
39930;SDS011;26635;-35.248;149.138;2023-07-09T03:15:56;0.30;;;0.20;;
39930;SDS011;26635;-35.248;149.138;2023-07-09T03:18:28;0.85;;;0.10;;
39930;SDS011;26635;-35.248;149.138;2023-07-09T03:20:59;0.80;;;0.10;;
39930;SDS011;26635;-35.248;149.138;2023-07-09T03:23:29;0.43;;;0.10;;
39930;SDS011;26635;-35.248;149.138;2023-07-09T03:26:00;0.35;;;0.10;;
39930;SDS011;26635;-35.248;149.138;2023-07-09T03:28:31;0.65;;;0.20;;
39930;SDS011;26635;-35.248;149.138;2023-07-09T03:31:02;1.60;;;0.10;;
39930;SDS011;26635;-35.248;149.138;2023-07-09T03:33:33;0.35;;;0.00;;
39930;SDS011;26635;-35.248;149.138;2023-07-09T03:36:04;1.05;;;0.10;;
39930;SDS011;26635;-35.248;149.138;2023-07-09T03:38:36;0.30;;;0.00;;
39930;SDS011;26635;-35.248;149.138;2023-07-09T03:41:07;0.28;;;0.00;;
39930;SDS011;26635;-35.248;149.138;2023-07-09T03:43:37;0.80;;;0.10;;
39930;SDS011;26635;-35.248;149.138;2023-07-09T03:46:08;0.00;;;0.00;;
39930;SDS011;26635;-35.248;149.138;2023-07-09T03:48:38;0.00;;;0.00;;
39930;SDS011;26635;-35.248;149.138;2023-07-09T03:51:10;0.03;;;0.03;;
39930;SDS011;26635;-35.248;149.138;2023-07-09T03:53:40;0.00;;;0.00;;
39930;SDS011;26635;-35.248;149.138;2023-07-09T03:56:11;0.05;;;0.00;;
39930;SDS011;26635;-35.248;149.138;2023-07-09T03:58:41;0.13;;;0.00;;
39930;SDS011;26635;-35.248;149.138;2023-07-09T04:01:12;0.10;;;0.00;;
39930;SDS011;26635;-35.248;149.138;2023-07-09T04:03:45;0.70;;;0.15;;
39930;SDS011;26635;-35.248;149.138;2023-07-09T04:06:16;0.65;;;0.10;;
39930;SDS011;26635;-35.248;149.138;2023-07-09T04:08:46;0.08;;;0.00;;
39930;SDS011;26635;-35.248;149.138;2023-07-09T04:11:17;0.40;;;0.00;;
39930;SDS011;26635;-35.248;149.138;2023-07-09T04:13:49;0.40;;;0.00;;
39930;SDS011;26635;-35.248;149.138;2023-07-09T04:16:21;0.20;;;0.17;;
39930;SDS011;26635;-35.248;149.138;2023-07-09T04:18:52;0.20;;;0.10;;
39930;SDS011;26635;-35.248;149.138;2023-07-09T04:21:25;0.25;;;0.20;;
39930;SDS011;26635;-35.248;149.138;2023-07-09T04:23:56;0.20;;;0.03;;
39930;SDS011;26635;-35.248;149.138;2023-07-09T04:26:26;1.05;;;0.13;;
39930;SDS011;26635;-35.248;149.138;2023-07-09T04:28:57;0.15;;;0.03;;
39930;SDS011;26635;-35.248;149.138;2023-07-09T04:31:28;1.17;;;0.10;;
39930;SDS011;26635;-35.248;149.138;2023-07-09T04:33:58;0.10;;;0.00;;
39930;SDS011;26635;-35.248;149.138;2023-07-09T04:36:29;0.20;;;0.03;;
39930;SDS011;26635;-35.248;149.138;2023-07-09T04:38:59;0.20;;;0.00;;
39930;SDS011;26635;-35.248;149.138;2023-07-09T04:41:30;0.08;;;0.00;;
39930;SDS011;26635;-35.248;149.138;2023-07-09T04:44:01;0.17;;;0.17;;
39930;SDS011;26635;-35.248;149.138;2023-07-09T04:46:32;0.10;;;0.00;;
39930;SDS011;26635;-35.248;149.138;2023-07-09T04:49:03;1.02;;;0.32;;
39930;SDS011;26635;-35.248;149.138;2023-07-09T04:51:34;0.10;;;0.00;;
39930;SDS011;26635;-35.248;149.138;2023-07-09T04:54:06;0.40;;;0.00;;
39930;SDS011;26635;-35.248;149.138;2023-07-09T04:56:36;0.00;;;0.00;;
39930;SDS011;26635;-35.248;149.138;2023-07-09T04:59:07;0.10;;;0.00;;
39930;SDS011;26635;-35.248;149.138;2023-07-09T05:01:38;0.22;;;0.10;;
39930;SDS011;26635;-35.248;149.138;2023-07-09T05:04:10;0.70;;;0.10;;
39930;SDS011;26635;-35.248;149.138;2023-07-09T05:06:41;0.00;;;0.00;;
39930;SDS011;26635;-35.248;149.138;2023-07-09T05:09:11;0.13;;;0.00;;
39930;SDS011;26635;-35.248;149.138;2023-07-09T05:11:42;1.17;;;0.10;;
39930;SDS011;26635;-35.248;149.138;2023-07-09T05:14:12;0.05;;;0.00;;
39930;SDS011;26635;-35.248;149.138;2023-07-09T05:16:44;0.00;;;0.00;;
39930;SDS011;26635;-35.248;149.138;2023-07-09T05:19:14;0.10;;;0.00;;
39930;SDS011;26635;-35.248;149.138;2023-07-09T05:21:45;0.20;;;0.00;;
39930;SDS011;26635;-35.248;149.138;2023-07-09T05:24:15;0.15;;;0.00;;
39930;SDS011;26635;-35.248;149.138;2023-07-09T05:26:45;0.38;;;0.10;;
39930;SDS011;26635;-35.248;149.138;2023-07-09T05:29:16;1.05;;;0.30;;
39930;SDS011;26635;-35.248;149.138;2023-07-09T05:31:47;1.13;;;0.30;;
39930;SDS011;26635;-35.248;149.138;2023-07-09T05:34:17;1.30;;;0.45;;
39930;SDS011;26635;-35.248;149.138;2023-07-09T05:36:48;0.88;;;0.50;;
39930;SDS011;26635;-35.248;149.138;2023-07-09T05:39:18;0.85;;;0.50;;
39930;SDS011;26635;-35.248;149.138;2023-07-09T05:41:48;0.63;;;0.30;;
39930;SDS011;26635;-35.248;149.138;2023-07-09T05:44:19;1.20;;;0.40;;
39930;SDS011;26635;-35.248;149.138;2023-07-09T05:46:49;0.50;;;0.32;;
39930;SDS011;26635;-35.248;149.138;2023-07-09T05:49:20;0.50;;;0.20;;
39930;SDS011;26635;-35.248;149.138;2023-07-09T05:51:51;0.20;;;0.10;;
39930;SDS011;26635;-35.248;149.138;2023-07-09T05:54:22;0.00;;;0.00;;
39930;SDS011;26635;-35.248;149.138;2023-07-09T05:56:53;0.00;;;0.00;;
39930;SDS011;26635;-35.248;149.138;2023-07-09T05:59:28;0.00;;;0.00;;
39930;SDS011;26635;-35.248;149.138;2023-07-09T06:01:59;0.00;;;0.00;;
39930;SDS011;26635;-35.248;149.138;2023-07-09T06:04:30;0.10;;;0.00;;
39930;SDS011;26635;-35.248;149.138;2023-07-09T06:07:00;0.05;;;0.00;;
39930;SDS011;26635;-35.248;149.138;2023-07-09T06:09:32;0.10;;;0.00;;
39930;SDS011;26635;-35.248;149.138;2023-07-09T06:12:03;1.05;;;0.00;;
39930;SDS011;26635;-35.248;149.138;2023-07-09T06:14:34;0.05;;;0.05;;
39930;SDS011;26635;-35.248;149.138;2023-07-09T06:17:04;0.00;;;0.00;;
39930;SDS011;26635;-35.248;149.138;2023-07-09T06:19:35;0.88;;;0.35;;
39930;SDS011;26635;-35.248;149.138;2023-07-09T06:22:05;0.30;;;0.10;;
39930;SDS011;26635;-35.248;149.138;2023-07-09T06:24:36;0.35;;;0.20;;
39930;SDS011;26635;-35.248;149.138;2023-07-09T06:27:06;0.17;;;0.10;;
39930;SDS011;26635;-35.248;149.138;2023-07-09T06:29:38;0.80;;;0.00;;
39930;SDS011;26635;-35.248;149.138;2023-07-09T06:32:08;0.80;;;0.03;;
39930;SDS011;26635;-35.248;149.138;2023-07-09T06:34:39;0.88;;;0.05;;
39930;SDS011;26635;-35.248;149.138;2023-07-09T06:37:10;0.03;;;0.03;;
39930;SDS011;26635;-35.248;149.138;2023-07-09T06:39:40;0.40;;;0.10;;
39930;SDS011;26635;-35.248;149.138;2023-07-09T06:42:11;0.05;;;0.00;;
39930;SDS011;26635;-35.248;149.138;2023-07-09T06:44:42;0.57;;;0.15;;
39930;SDS011;26635;-35.248;149.138;2023-07-09T06:47:12;0.00;;;0.00;;
39930;SDS011;26635;-35.248;149.138;2023-07-09T06:49:43;0.30;;;0.00;;
39930;SDS011;26635;-35.248;149.138;2023-07-09T06:52:13;0.20;;;0.10;;
39930;SDS011;26635;-35.248;149.138;2023-07-09T06:54:44;0.50;;;0.10;;
39930;SDS011;26635;-35.248;149.138;2023-07-09T06:57:14;0.17;;;0.00;;
39930;SDS011;26635;-35.248;149.138;2023-07-09T06:59:45;0.00;;;0.00;;
39930;SDS011;26635;-35.248;149.138;2023-07-09T07:02:15;0.10;;;0.10;;
39930;SDS011;26635;-35.248;149.138;2023-07-09T07:04:46;0.50;;;0.10;;
39930;SDS011;26635;-35.248;149.138;2023-07-09T07:07:17;0.55;;;0.20;;
39930;SDS011;26635;-35.248;149.138;2023-07-09T07:09:48;0.73;;;0.20;;
39930;SDS011;26635;-35.248;149.138;2023-07-09T07:12:26;0.52;;;0.20;;
39930;SDS011;26635;-35.248;149.138;2023-07-09T07:14:57;0.32;;;0.32;;
39930;SDS011;26635;-35.248;149.138;2023-07-09T07:17:28;0.32;;;0.20;;
39930;SDS011;26635;-35.248;149.138;2023-07-09T07:19:58;0.28;;;0.17;;
39930;SDS011;26635;-35.248;149.138;2023-07-09T07:22:29;0.35;;;0.10;;
39930;SDS011;26635;-35.248;149.138;2023-07-09T07:24:59;2.20;;;0.20;;
39930;SDS011;26635;-35.248;149.138;2023-07-09T07:27:30;0.52;;;0.10;;
39930;SDS011;26635;-35.248;149.138;2023-07-09T07:30:00;0.20;;;0.10;;
39930;SDS011;26635;-35.248;149.138;2023-07-09T07:32:31;0.68;;;0.20;;
39930;SDS011;26635;-35.248;149.138;2023-07-09T07:35:02;2.75;;;0.30;;
39930;SDS011;26635;-35.248;149.138;2023-07-09T07:37:35;0.65;;;0.20;;
39930;SDS011;26635;-35.248;149.138;2023-07-09T07:40:05;0.60;;;0.17;;
39930;SDS011;26635;-35.248;149.138;2023-07-09T07:42:37;0.65;;;0.30;;
39930;SDS011;26635;-35.248;149.138;2023-07-09T07:45:09;1.70;;;0.75;;
39930;SDS011;26635;-35.248;149.138;2023-07-09T07:47:39;0.30;;;0.30;;
39930;SDS011;26635;-35.248;149.138;2023-07-09T07:50:10;1.30;;;0.35;;
39930;SDS011;26635;-35.248;149.138;2023-07-09T07:52:41;0.38;;;0.30;;
39930;SDS011;26635;-35.248;149.138;2023-07-09T07:55:12;1.08;;;0.70;;
39930;SDS011;26635;-35.248;149.138;2023-07-09T07:57:46;1.05;;;0.40;;
39930;SDS011;26635;-35.248;149.138;2023-07-09T08:00:19;0.65;;;0.30;;
39930;SDS011;26635;-35.248;149.138;2023-07-09T08:02:50;0.90;;;0.50;;
39930;SDS011;26635;-35.248;149.138;2023-07-09T08:05:21;0.63;;;0.22;;
39930;SDS011;26635;-35.248;149.138;2023-07-09T08:07:52;0.75;;;0.20;;
39930;SDS011;26635;-35.248;149.138;2023-07-09T08:10:24;0.30;;;0.10;;
39930;SDS011;26635;-35.248;149.138;2023-07-09T08:12:55;0.22;;;0.10;;
39930;SDS011;26635;-35.248;149.138;2023-07-09T08:15:25;0.50;;;0.20;;
39930;SDS011;26635;-35.248;149.138;2023-07-09T08:17:57;3.08;;;0.90;;
39930;SDS011;26635;-35.248;149.138;2023-07-09T08:20:28;2.83;;;0.98;;
39930;SDS011;26635;-35.248;149.138;2023-07-09T08:22:59;4.30;;;1.52;;
39930;SDS011;26635;-35.248;149.138;2023-07-09T08:25:31;1.58;;;0.65;;
39930;SDS011;26635;-35.248;149.138;2023-07-09T08:28:02;1.13;;;0.50;;
39930;SDS011;26635;-35.248;149.138;2023-07-09T08:30:34;0.88;;;0.20;;
39930;SDS011;26635;-35.248;149.138;2023-07-09T08:33:05;2.33;;;0.52;;
39930;SDS011;26635;-35.248;149.138;2023-07-09T08:35:36;1.02;;;0.30;;
39930;SDS011;26635;-35.248;149.138;2023-07-09T08:38:07;0.98;;;0.68;;
39930;SDS011;26635;-35.248;149.138;2023-07-09T08:40:57;1.15;;;0.10;;
39930;SDS011;26635;-35.248;149.138;2023-07-09T08:49:16;0.40;;;0.20;;
39930;SDS011;26635;-35.248;149.138;2023-07-09T08:51:50;0.38;;;0.10;;
39930;SDS011;26635;-35.248;149.138;2023-07-09T08:54:28;0.15;;;0.10;;
39930;SDS011;26635;-35.248;149.138;2023-07-09T08:57:14;0.50;;;0.10;;
39930;SDS011;26635;-35.248;149.138;2023-07-09T09:00:02;0.98;;;0.40;;
39930;SDS011;26635;-35.248;149.138;2023-07-09T09:02:49;1.75;;;0.60;;
39930;SDS011;26635;-35.248;149.138;2023-07-09T09:05:25;2.40;;;1.08;;
39930;SDS011;26635;-35.248;149.138;2023-07-09T09:08:03;0.65;;;0.30;;
39930;SDS011;26635;-35.248;149.138;2023-07-09T09:10:52;0.15;;;0.15;;
39930;SDS011;26635;-35.248;149.138;2023-07-09T09:13:34;0.45;;;0.30;;
39930;SDS011;26635;-35.248;149.138;2023-07-09T09:19:28;0.20;;;0.10;;
39930;SDS011;26635;-35.248;149.138;2023-07-09T09:22:10;0.82;;;0.40;;
39930;SDS011;26635;-35.248;149.138;2023-07-09T09:27:25;0.10;;;0.10;;
39930;SDS011;26635;-35.248;149.138;2023-07-09T09:29:56;0.88;;;0.28;;
39930;SDS011;26635;-35.248;149.138;2023-07-09T09:32:28;0.20;;;0.20;;
39930;SDS011;26635;-35.248;149.138;2023-07-09T09:35:13;0.40;;;0.20;;
39930;SDS011;26635;-35.248;149.138;2023-07-09T09:37:50;0.38;;;0.13;;
39930;SDS011;26635;-35.248;149.138;2023-07-09T09:40:27;0.40;;;0.13;;
39930;SDS011;26635;-35.248;149.138;2023-07-09T09:43:09;0.65;;;0.20;;
39930;SDS011;26635;-35.248;149.138;2023-07-09T09:45:49;1.05;;;0.20;;
39930;SDS011;26635;-35.248;149.138;2023-07-09T09:48:27;0.40;;;0.30;;
39930;SDS011;26635;-35.248;149.138;2023-07-09T09:50:58;0.35;;;0.28;;
39930;SDS011;26635;-35.248;149.138;2023-07-09T09:53:39;0.80;;;0.30;;
39930;SDS011;26635;-35.248;149.138;2023-07-09T09:56:17;1.00;;;0.50;;
39930;SDS011;26635;-35.248;149.138;2023-07-09T09:59:13;1.17;;;0.40;;
39930;SDS011;26635;-35.248;149.138;2023-07-09T10:01:57;0.93;;;0.30;;
39930;SDS011;26635;-35.248;149.138;2023-07-09T10:04:31;0.45;;;0.10;;
39930;SDS011;26635;-35.248;149.138;2023-07-09T10:07:03;1.00;;;0.00;;
39930;SDS011;26635;-35.248;149.138;2023-07-09T10:09:53;0.05;;;0.00;;
39930;SDS011;26635;-35.248;149.138;2023-07-09T10:13:10;0.70;;;0.15;;
39930;SDS011;26635;-35.248;149.138;2023-07-09T10:15:35;0.75;;;0.38;;
39930;SDS011;26635;-35.248;149.138;2023-07-09T10:27:22;1.00;;;0.13;;
39930;SDS011;26635;-35.248;149.138;2023-07-09T10:32:55;0.35;;;0.00;;
39930;SDS011;26635;-35.248;149.138;2023-07-09T10:35:32;0.20;;;0.05;;
39930;SDS011;26635;-35.248;149.138;2023-07-09T10:46:24;1.08;;;0.10;;
39930;SDS011;26635;-35.248;149.138;2023-07-09T10:48:57;0.13;;;0.03;;
39930;SDS011;26635;-35.248;149.138;2023-07-09T10:51:38;0.10;;;0.10;;
39930;SDS011;26635;-35.248;149.138;2023-07-09T10:56:54;0.22;;;0.10;;
39930;SDS011;26635;-35.248;149.138;2023-07-09T10:59:42;0.13;;;0.03;;
39930;SDS011;26635;-35.248;149.138;2023-07-09T11:02:35;1.73;;;0.10;;
39930;SDS011;26635;-35.248;149.138;2023-07-09T11:05:08;0.32;;;0.15;;
39930;SDS011;26635;-35.248;149.138;2023-07-09T11:07:52;1.02;;;0.10;;
39930;SDS011;26635;-35.248;149.138;2023-07-09T11:10:29;2.58;;;0.10;;
39930;SDS011;26635;-35.248;149.138;2023-07-09T11:13:11;0.03;;;0.00;;
39930;SDS011;26635;-35.248;149.138;2023-07-09T11:16:09;0.25;;;0.13;;
39930;SDS011;26635;-35.248;149.138;2023-07-09T11:18:58;1.80;;;0.10;;
39930;SDS011;26635;-35.248;149.138;2023-07-09T11:21:31;0.65;;;0.05;;
39930;SDS011;26635;-35.248;149.138;2023-07-09T11:24:04;0.38;;;0.00;;
39930;SDS011;26635;-35.248;149.138;2023-07-09T11:26:36;0.15;;;0.10;;
39930;SDS011;26635;-35.248;149.138;2023-07-09T11:29:18;1.02;;;0.20;;
39930;SDS011;26635;-35.248;149.138;2023-07-09T11:31:52;1.15;;;0.25;;
39930;SDS011;26635;-35.248;149.138;2023-07-09T11:34:27;0.17;;;0.15;;
39930;SDS011;26635;-35.248;149.138;2023-07-09T11:36:59;0.50;;;0.10;;
39930;SDS011;26635;-35.248;149.138;2023-07-09T11:39:51;1.10;;;0.10;;
39930;SDS011;26635;-35.248;149.138;2023-07-09T11:42:23;1.30;;;0.88;;
39930;SDS011;26635;-35.248;149.138;2023-07-09T11:45:10;3.53;;;0.65;;
39930;SDS011;26635;-35.248;149.138;2023-07-09T11:47:45;1.63;;;0.22;;
39930;SDS011;26635;-35.248;149.138;2023-07-09T11:50:28;0.20;;;0.10;;
39930;SDS011;26635;-35.248;149.138;2023-07-09T11:55:57;0.75;;;0.10;;
39930;SDS011;26635;-35.248;149.138;2023-07-09T11:58:28;1.02;;;0.20;;
39930;SDS011;26635;-35.248;149.138;2023-07-09T12:00:59;0.43;;;0.10;;
39930;SDS011;26635;-35.248;149.138;2023-07-09T12:03:31;0.52;;;0.10;;
39930;SDS011;26635;-35.248;149.138;2023-07-09T12:06:24;0.35;;;0.10;;
39930;SDS011;26635;-35.248;149.138;2023-07-09T12:08:58;0.13;;;0.10;;
39930;SDS011;26635;-35.248;149.138;2023-07-09T12:11:29;0.70;;;0.10;;
39930;SDS011;26635;-35.248;149.138;2023-07-09T12:14:03;0.90;;;0.10;;
39930;SDS011;26635;-35.248;149.138;2023-07-09T12:16:55;0.00;;;0.00;;
39930;SDS011;26635;-35.248;149.138;2023-07-09T12:19:28;0.50;;;0.20;;
39930;SDS011;26635;-35.248;149.138;2023-07-09T12:22:00;1.63;;;0.28;;
39930;SDS011;26635;-35.248;149.138;2023-07-09T12:24:36;0.43;;;0.43;;
39930;SDS011;26635;-35.248;149.138;2023-07-09T12:29:51;0.40;;;0.10;;
39930;SDS011;26635;-35.248;149.138;2023-07-09T12:32:24;0.35;;;0.10;;
39930;SDS011;26635;-35.248;149.138;2023-07-09T12:34:57;0.52;;;0.10;;
39930;SDS011;26635;-35.248;149.138;2023-07-09T12:37:28;0.10;;;0.10;;
39930;SDS011;26635;-35.248;149.138;2023-07-09T12:40:01;0.85;;;0.10;;
39930;SDS011;26635;-35.248;149.138;2023-07-09T12:42:36;0.75;;;0.20;;
39930;SDS011;26635;-35.248;149.138;2023-07-09T12:45:13;0.88;;;0.20;;
39930;SDS011;26635;-35.248;149.138;2023-07-09T12:47:47;0.30;;;0.30;;
39930;SDS011;26635;-35.248;149.138;2023-07-09T12:50:25;0.60;;;0.10;;
39930;SDS011;26635;-35.248;149.138;2023-07-09T12:53:03;0.73;;;0.47;;
39930;SDS011;26635;-35.248;149.138;2023-07-09T12:55:45;0.45;;;0.30;;
39930;SDS011;26635;-35.248;149.138;2023-07-09T12:58:21;0.13;;;0.05;;
39930;SDS011;26635;-35.248;149.138;2023-07-09T13:00:59;0.38;;;0.05;;
39930;SDS011;26635;-35.248;149.138;2023-07-09T13:03:35;0.65;;;0.20;;
39930;SDS011;26635;-35.248;149.138;2023-07-09T13:06:29;0.13;;;0.10;;
39930;SDS011;26635;-35.248;149.138;2023-07-09T13:09:15;0.10;;;0.00;;
39930;SDS011;26635;-35.248;149.138;2023-07-09T13:11:50;0.40;;;0.10;;
39930;SDS011;26635;-35.248;149.138;2023-07-09T13:14:22;0.15;;;0.00;;
39930;SDS011;26635;-35.248;149.138;2023-07-09T13:17:05;0.38;;;0.10;;
39930;SDS011;26635;-35.248;149.138;2023-07-09T13:19:37;0.75;;;0.10;;
39930;SDS011;26635;-35.248;149.138;2023-07-09T13:22:10;0.13;;;0.03;;
39930;SDS011;26635;-35.248;149.138;2023-07-09T13:24:44;0.15;;;0.10;;
39930;SDS011;26635;-35.248;149.138;2023-07-09T13:27:15;0.20;;;0.10;;
39930;SDS011;26635;-35.248;149.138;2023-07-09T13:29:46;0.52;;;0.17;;
39930;SDS011;26635;-35.248;149.138;2023-07-09T13:32:18;0.22;;;0.10;;
39930;SDS011;26635;-35.248;149.138;2023-07-09T13:34:49;0.50;;;0.10;;
39930;SDS011;26635;-35.248;149.138;2023-07-09T13:37:19;0.63;;;0.10;;
39930;SDS011;26635;-35.248;149.138;2023-07-09T13:39:49;0.30;;;0.10;;
39930;SDS011;26635;-35.248;149.138;2023-07-09T13:42:20;0.70;;;0.17;;
39930;SDS011;26635;-35.248;149.138;2023-07-09T13:44:51;1.00;;;0.10;;
39930;SDS011;26635;-35.248;149.138;2023-07-09T13:47:24;0.70;;;0.10;;
39930;SDS011;26635;-35.248;149.138;2023-07-09T13:49:55;2.08;;;0.30;;
39930;SDS011;26635;-35.248;149.138;2023-07-09T13:52:25;0.15;;;0.10;;
39930;SDS011;26635;-35.248;149.138;2023-07-09T13:54:55;0.70;;;0.20;;
39930;SDS011;26635;-35.248;149.138;2023-07-09T13:57:26;2.28;;;0.20;;
39930;SDS011;26635;-35.248;149.138;2023-07-09T13:59:56;1.98;;;0.10;;
39930;SDS011;26635;-35.248;149.138;2023-07-09T14:02:30;0.55;;;0.30;;
39930;SDS011;26635;-35.248;149.138;2023-07-09T14:05:02;1.15;;;0.10;;
39930;SDS011;26635;-35.248;149.138;2023-07-09T14:07:38;0.90;;;0.10;;
39930;SDS011;26635;-35.248;149.138;2023-07-09T14:10:11;1.13;;;0.20;;
39930;SDS011;26635;-35.248;149.138;2023-07-09T14:12:49;0.77;;;0.10;;
39930;SDS011;26635;-35.248;149.138;2023-07-09T14:15:21;0.35;;;0.08;;
39930;SDS011;26635;-35.248;149.138;2023-07-09T14:17:52;1.30;;;0.20;;
39930;SDS011;26635;-35.248;149.138;2023-07-09T14:20:23;0.75;;;0.40;;
39930;SDS011;26635;-35.248;149.138;2023-07-09T14:22:54;0.40;;;0.10;;
39930;SDS011;26635;-35.248;149.138;2023-07-09T14:25:25;0.35;;;0.10;;
39930;SDS011;26635;-35.248;149.138;2023-07-09T14:27:57;0.82;;;0.10;;
39930;SDS011;26635;-35.248;149.138;2023-07-09T14:30:27;1.77;;;0.15;;
39930;SDS011;26635;-35.248;149.138;2023-07-09T14:32:57;0.35;;;0.10;;
39930;SDS011;26635;-35.248;149.138;2023-07-09T14:35:28;0.55;;;0.10;;
39930;SDS011;26635;-35.248;149.138;2023-07-09T14:37:58;0.85;;;0.10;;
39930;SDS011;26635;-35.248;149.138;2023-07-09T14:40:29;0.30;;;0.22;;
39930;SDS011;26635;-35.248;149.138;2023-07-09T14:43:00;1.02;;;0.10;;
39930;SDS011;26635;-35.248;149.138;2023-07-09T14:45:34;0.90;;;0.30;;
39930;SDS011;26635;-35.248;149.138;2023-07-09T14:48:12;1.33;;;0.90;;
39930;SDS011;26635;-35.248;149.138;2023-07-09T14:50:46;1.90;;;0.80;;
39930;SDS011;26635;-35.248;149.138;2023-07-09T14:53:22;0.85;;;0.80;;
39930;SDS011;26635;-35.248;149.138;2023-07-09T14:55:56;1.25;;;0.60;;
39930;SDS011;26635;-35.248;149.138;2023-07-09T14:58:27;1.02;;;0.63;;
39930;SDS011;26635;-35.248;149.138;2023-07-09T15:00:58;1.00;;;0.50;;
39930;SDS011;26635;-35.248;149.138;2023-07-09T15:03:30;2.38;;;0.90;;
39930;SDS011;26635;-35.248;149.138;2023-07-09T15:06:01;2.05;;;0.50;;
39930;SDS011;26635;-35.248;149.138;2023-07-09T15:08:32;1.55;;;0.30;;
39930;SDS011;26635;-35.248;149.138;2023-07-09T15:11:05;1.15;;;0.20;;
39930;SDS011;26635;-35.248;149.138;2023-07-09T15:13:39;1.58;;;0.70;;
39930;SDS011;26635;-35.248;149.138;2023-07-09T15:16:12;0.20;;;0.10;;
39930;SDS011;26635;-35.248;149.138;2023-07-09T15:18:43;0.93;;;0.20;;
39930;SDS011;26635;-35.248;149.138;2023-07-09T15:21:13;0.20;;;0.20;;
39930;SDS011;26635;-35.248;149.138;2023-07-09T15:23:45;0.20;;;0.10;;
39930;SDS011;26635;-35.248;149.138;2023-07-09T15:26:16;1.30;;;0.10;;
39930;SDS011;26635;-35.248;149.138;2023-07-09T15:28:47;0.70;;;0.17;;
39930;SDS011;26635;-35.248;149.138;2023-07-09T15:31:19;0.45;;;0.20;;
39930;SDS011;26635;-35.248;149.138;2023-07-09T15:33:50;1.17;;;0.20;;
39930;SDS011;26635;-35.248;149.138;2023-07-09T15:36:21;0.25;;;0.10;;